Time;durP1;ratioP1;P1;durP2;ratioP2;P2;SDS_P1;SDS_P2;PMS_P1;PMS_P2;Temp;Humidity;BMP_temperature;BMP_pressure;BME280_temperature;BME280_humidity;BME280_pressure;Samples;Min_cycle;Max_cycle;Signal;HPM_P1;HPM_P2
2022/01/26 00:00:43;;;;;;;;;;;22.40;27.30;;;;;;5090863;28;20032;-68
2022/01/26 00:06:05;;;;;;;;;;;22.30;27.30;;;;;;5092470;28;19920;-68
2022/01/26 00:08:31;;;;;;;;;;;22.40;27.30;;;;;;5091445;28;20026;-67
2022/01/26 00:10:59;;;;;;;;;;;22.30;27.30;;;;;;5092752;28;19924;-67
2022/01/26 00:13:26;;;;;;;;;;;22.30;27.30;;;;;;5091588;28;20400;-68
2022/01/26 00:15:56;;;;;;;;;;;22.30;27.30;;;;;;5092170;28;19924;-67
2022/01/26 00:18:29;;;;;;;;;;;22.30;27.30;;;;;;5091062;28;19959;-68
2022/01/26 00:21:03;;;;;;;;;;;22.30;27.30;;;;;;5091856;28;19920;-68
2022/01/26 00:23:52;;;;;;;;;;;22.30;27.30;;;;;;5091435;28;20010;-68
2022/01/26 00:26:30;;;;;;;;;;;22.30;27.30;;;;;;5091472;28;20397;-67
2022/01/26 00:29:09;;;;;;;;;;;22.30;27.30;;;;;;5084328;28;19927;-68
2022/01/26 00:40:06;;;;;;;;;;;22.20;27.30;;;;;;5100859;28;19950;-68
2022/01/26 00:42:38;;;;;;;;;;;22.20;27.40;;;;;;5077081;28;19956;-68
2022/01/26 00:45:06;;;;;;;;;;;22.20;27.40;;;;;;5088615;28;20284;-67
2022/01/26 00:47:33;;;;;;;;;;;22.20;27.40;;;;;;5088995;28;20096;-68
2022/01/26 00:50:05;;;;;;;;;;;22.20;27.40;;;;;;5089439;28;19997;-69
2022/01/26 00:52:41;;;;;;;;;;;22.20;27.40;;;;;;5080444;28;20501;-67
2022/01/26 00:55:10;;;;;;;;;;;22.20;27.40;;;;;;5068495;28;20606;-68
2022/01/26 00:57:38;;;;;;;;;;;22.20;27.40;;;;;;5068008;28;19920;-68
2022/01/26 01:00:08;;;;;;;;;;;22.20;27.30;;;;;;5068132;28;20179;-68
2022/01/26 01:02:35;;;;;;;;;;;22.20;27.40;;;;;;5071106;28;19990;-68
2022/01/26 01:05:11;;;;;;;;;;;22.20;27.30;;;;;;5068415;28;20482;-68
2022/01/26 01:07:39;;;;;;;;;;;22.20;27.30;;;;;;5068238;28;19927;-67
2022/01/26 01:10:07;;;;;;;;;;;22.20;27.80;;;;;;5067990;28;19920;-68
2022/01/26 01:12:40;;;;;;;;;;;22.20;27.30;;;;;;5068401;28;20012;-68
2022/01/26 01:15:07;;;;;;;;;;;22.20;27.30;;;;;;5070180;28;19920;-68
2022/01/26 01:17:40;;;;;;;;;;;22.30;27.30;;;;;;5077111;28;19920;-68
2022/01/26 01:23:15;;;;;;;;;;;22.20;27.30;;;;;;5068204;28;19956;-68
2022/01/26 01:28:47;;;;;;;;;;;22.20;27.30;;;;;;5064009;28;19971;-68
2022/01/26 01:31:27;;;;;;;;;;;22.20;27.30;;;;;;5088017;28;20388;-68
2022/01/26 01:33:55;;;;;;;;;;;22.20;27.30;;;;;;5093391;28;19920;-68
2022/01/26 01:36:22;;;;;;;;;;;22.20;27.30;;;;;;5108359;28;20368;-68
2022/01/26 01:38:49;;;;;;;;;;;22.20;27.30;;;;;;5094158;28;20010;-68
2022/01/26 01:41:16;;;;;;;;;;;22.20;27.30;;;;;;5087193;28;19947;-67
2022/01/26 01:43:43;;;;;;;;;;;22.20;27.30;;;;;;5087926;28;20109;-68
2022/01/26 01:46:10;;;;;;;;;;;22.20;27.30;;;;;;5087426;28;20006;-68
2022/01/26 01:48:37;;;;;;;;;;;22.10;27.30;;;;;;5088086;28;19920;-68
2022/01/26 01:51:08;;;;;;;;;;;22.20;27.40;;;;;;5087781;28;19995;-68
2022/01/26 01:53:41;;;;;;;;;;;22.20;27.40;;;;;;5087012;28;19924;-68
2022/01/26 01:56:09;;;;;;;;;;;22.10;27.30;;;;;;5087086;28;20015;-67
2022/01/26 01:58:37;;;;;;;;;;;22.20;27.40;;;;;;5086567;28;20006;-68
2022/01/26 02:01:04;;;;;;;;;;;22.10;27.30;;;;;;5086876;28;20015;-68
2022/01/26 02:03:31;;;;;;;;;;;22.10;27.30;;;;;;5086409;28;19924;-69
2022/01/26 02:05:59;;;;;;;;;;;22.10;27.30;;;;;;5085790;28;20010;-67
2022/01/26 02:08:26;;;;;;;;;;;22.10;27.30;;;;;;5085600;28;19973;-68
2022/01/26 02:10:53;;;;;;;;;;;22.10;27.40;;;;;;5086651;28;19985;-68
2022/01/26 02:13:25;;;;;;;;;;;22.10;27.30;;;;;;5087417;28;20035;-68
2022/01/26 02:16:02;;;;;;;;;;;22.10;27.40;;;;;;5085430;28;19963;-68
2022/01/26 02:18:42;;;;;;;;;;;22.10;27.40;;;;;;5083179;28;19920;-68
2022/01/26 02:21:34;;;;;;;;;;;22.10;27.40;;;;;;5086287;28;20010;-67
2022/01/26 02:49:37;;;;;;;;;;;22.10;27.40;;;;;;5081954;28;19927;-68
2022/01/26 02:54:51;;;;;;;;;;;22.10;27.40;;;;;;5078837;28;19945;-67
2022/01/26 02:57:39;;;;;;;;;;;22.10;27.40;;;;;;5082481;28;20293;-67
2022/01/26 03:00:18;;;;;;;;;;;22.10;27.40;;;;;;5083645;28;20476;-68
2022/01/26 03:02:57;;;;;;;;;;;22.10;27.40;;;;;;5087804;28;19920;-68
2022/01/26 03:05:30;;;;;;;;;;;22.10;27.40;;;;;;5083761;28;19924;-67
2022/01/26 03:08:03;;;;;;;;;;;22.10;27.40;;;;;;5084871;28;19926;-68
2022/01/26 03:10:38;;;;;;;;;;;22.10;27.80;;;;;;5086303;28;19959;-67
2022/01/26 03:13:11;;;;;;;;;;;22.10;27.30;;;;;;5086071;28;20011;-68
2022/01/26 03:15:46;;;;;;;;;;;22.10;27.30;;;;;;5085874;28;19973;-67
2022/01/26 03:18:36;;;;;;;;;;;22.10;27.30;;;;;;5085939;28;20197;-68
2022/01/26 03:21:04;;;;;;;;;;;22.10;27.30;;;;;;5086123;28;20027;-68
2022/01/26 03:29:13;;;;;;;;;;;22.10;27.40;;;;;;5083357;28;19920;-68
2022/01/26 03:32:14;;;;;;;;;;;22.00;27.30;;;;;;5082509;28;20034;-68
2022/01/26 03:34:27;;;;;;;;;;;22.00;27.30;;;;;;5085188;28;20011;-68
2022/01/26 03:37:01;;;;;;;;;;;22.00;27.40;;;;;;5085935;28;20034;-68
2022/01/26 03:39:29;;;;;;;;;;;22.00;27.40;;;;;;5085901;28;20428;-68
2022/01/26 03:42:05;;;;;;;;;;;22.00;27.40;;;;;;5085571;28;19920;-68
2022/01/26 03:44:32;;;;;;;;;;;22.00;27.40;;;;;;5086207;28;20396;-68
2022/01/26 03:47:00;;;;;;;;;;;22.00;27.40;;;;;;5084572;28;20128;-68
2022/01/26 03:49:27;;;;;;;;;;;22.00;27.40;;;;;;5086258;28;20363;-68
2022/01/26 03:51:54;;;;;;;;;;;22.00;27.40;;;;;;5086199;28;19955;-68
2022/01/26 03:54:21;;;;;;;;;;;22.00;27.40;;;;;;5084886;28;19978;-67
2022/01/26 03:56:48;;;;;;;;;;;22.00;27.40;;;;;;5084893;28;19920;-68
2022/01/26 03:59:15;;;;;;;;;;;22.00;27.40;;;;;;5084995;28;19943;-68
2022/01/26 04:01:42;;;;;;;;;;;22.00;27.40;;;;;;5083529;28;20023;-68
2022/01/26 04:04:09;;;;;;;;;;;22.00;27.40;;;;;;5080599;28;19920;-68
2022/01/26 04:06:37;;;;;;;;;;;22.00;27.40;;;;;;5085456;28;20232;-67
2022/01/26 04:09:10;;;;;;;;;;;22.00;27.40;;;;;;5084235;28;20400;-67
2022/01/26 04:11:44;;;;;;;;;;;22.00;27.40;;;;;;5083922;28;19966;-68
2022/01/26 04:14:13;;;;;;;;;;;22.00;27.40;;;;;;5083092;28;19924;-68
2022/01/26 04:16:42;;;;;;;;;;;22.00;27.40;;;;;;5086223;28;20398;-68
2022/01/26 04:19:09;;;;;;;;;;;22.00;27.40;;;;;;5088302;28;19948;-67
2022/01/26 04:24:31;;;;;;;;;;;22.00;27.40;;;;;;5088866;28;19928;-68
2022/01/26 04:27:06;;;;;;;;;;;21.90;27.40;;;;;;5088784;28;20031;-68
2022/01/26 04:29:34;;;;;;;;;;;22.00;27.40;;;;;;5089317;28;20491;-68
2022/01/26 04:32:03;;;;;;;;;;;22.00;27.40;;;;;;5088049;28;19928;-68
2022/01/26 04:34:32;;;;;;;;;;;21.90;27.40;;;;;;5088994;28;19943;-68
2022/01/26 04:37:13;;;;;;;;;;;21.90;27.40;;;;;;5088700;28;19990;-68
2022/01/26 04:39:50;;;;;;;;;;;22.00;27.40;;;;;;5087903;28;20203;-68
2022/01/26 04:42:27;;;;;;;;;;;21.90;27.40;;;;;;5068406;28;20378;-68
2022/01/26 04:45:01;;;;;;;;;;;22.00;27.40;;;;;;5085581;28;19966;-68
2022/01/26 04:47:29;;;;;;;;;;;22.00;27.40;;;;;;5088248;28;20458;-68
2022/01/26 04:49:56;;;;;;;;;;;22.00;27.40;;;;;;5088075;28;20030;-68
2022/01/26 04:52:23;;;;;;;;;;;22.00;27.40;;;;;;5087577;28;20006;-68
2022/01/26 04:54:50;;;;;;;;;;;22.00;27.40;;;;;;5088713;28;19924;-68
2022/01/26 04:57:17;;;;;;;;;;;22.00;27.40;;;;;;5088898;28;19920;-68
2022/01/26 04:59:44;;;;;;;;;;;22.00;27.40;;;;;;5087800;28;19920;-68
2022/01/26 05:02:11;;;;;;;;;;;22.00;27.40;;;;;;5087899;28;19924;-68
2022/01/26 05:04:38;;;;;;;;;;;22.00;27.40;;;;;;5088420;28;20269;-68
2022/01/26 05:07:05;;;;;;;;;;;22.00;27.40;;;;;;5088617;28;19978;-68
2022/01/26 05:09:32;;;;;;;;;;;22.00;27.40;;;;;;5092003;28;20459;-68
2022/01/26 05:12:01;;;;;;;;;;;21.90;27.30;;;;;;5088194;28;19974;-67
2022/01/26 05:14:29;;;;;;;;;;;22.00;27.40;;;;;;5070385;28;20005;-68
2022/01/26 05:16:56;;;;;;;;;;;22.00;27.40;;;;;;5087346;28;20196;-68
2022/01/26 05:19:23;;;;;;;;;;;21.90;27.30;;;;;;5086724;28;19970;-68
2022/01/26 05:21:51;;;;;;;;;;;21.90;27.40;;;;;;5087723;28;19959;-67
2022/01/26 05:24:17;;;;;;;;;;;21.90;27.40;;;;;;5088296;28;19970;-67
2022/01/26 05:26:44;;;;;;;;;;;21.90;27.40;;;;;;5087564;28;20548;-68
2022/01/26 05:29:12;;;;;;;;;;;21.90;27.40;;;;;;5085709;28;19920;-68
2022/01/26 05:31:39;;;;;;;;;;;21.90;27.40;;;;;;5087974;28;20023;-68
2022/01/26 05:34:07;;;;;;;;;;;21.90;27.40;;;;;;5086807;28;19920;-68
2022/01/26 05:36:34;;;;;;;;;;;21.90;27.40;;;;;;5079557;28;20435;-68
2022/01/26 05:39:01;;;;;;;;;;;21.90;27.40;;;;;;5082718;28;20191;-68
2022/01/26 05:41:28;;;;;;;;;;;21.90;27.40;;;;;;5069659;28;20018;-68
2022/01/26 05:43:55;;;;;;;;;;;21.90;27.40;;;;;;5087341;28;19920;-68
2022/01/26 05:46:33;;;;;;;;;;;21.90;27.40;;;;;;5063379;28;19954;-68
2022/01/26 05:49:00;;;;;;;;;;;21.90;27.40;;;;;;5087599;28;19920;-68
2022/01/26 05:51:31;;;;;;;;;;;21.90;27.40;;;;;;5085641;28;20283;-65
2022/01/26 05:53:58;;;;;;;;;;;21.80;27.40;;;;;;5085269;28;19920;-68
2022/01/26 05:56:25;;;;;;;;;;;21.90;27.40;;;;;;5088862;28;20010;-68
2022/01/26 05:58:52;;;;;;;;;;;21.90;27.40;;;;;;5087471;28;20416;-68
2022/01/26 06:01:20;;;;;;;;;;;21.90;27.40;;;;;;5085508;28;20007;-68
2022/01/26 06:03:48;;;;;;;;;;;21.90;27.40;;;;;;5081244;28;19997;-67
2022/01/26 06:06:18;;;;;;;;;;;21.80;27.40;;;;;;5098836;28;20463;-67
2022/01/26 06:08:45;;;;;;;;;;;21.80;27.40;;;;;;5082712;28;19989;-68
2022/01/26 06:11:12;;;;;;;;;;;21.80;27.40;;;;;;5086829;28;19966;-67
2022/01/26 06:13:39;;;;;;;;;;;21.80;27.30;;;;;;5086725;28;20369;-68
2022/01/26 06:16:06;;;;;;;;;;;21.80;27.30;;;;;;5087206;28;19924;-67
2022/01/26 06:18:33;;;;;;;;;;;21.80;27.30;;;;;;5083069;28;19934;-74
2022/01/26 06:21:00;;;;;;;;;;;21.80;27.40;;;;;;5081281;28;20377;-64
2022/01/26 06:23:27;;;;;;;;;;;21.80;27.50;;;;;;5068210;28;19959;-65
2022/01/26 06:25:56;;;;;;;;;;;21.80;27.50;;;;;;5087632;28;20011;-64
2022/01/26 06:28:26;;;;;;;;;;;21.80;28.00;;;;;;5053979;28;19978;-67
2022/01/26 06:30:56;;;;;;;;;;;21.90;28.00;;;;;;5085990;28;19920;-66
2022/01/26 06:33:23;;;;;;;;;;;21.90;27.60;;;;;;5085916;28;19947;-67
2022/01/26 06:35:50;;;;;;;;;;;22.00;27.60;;;;;;5083972;28;20046;-65
2022/01/26 06:38:17;;;;;;;;;;;22.00;27.50;;;;;;5076487;28;19963;-70
2022/01/26 06:40:44;;;;;;;;;;;22.10;27.50;;;;;;5081517;28;19978;-71
2022/01/26 06:43:14;;;;;;;;;;;22.10;27.40;;;;;;5083052;28;20006;-69
2022/01/26 06:45:48;;;;;;;;;;;22.20;27.40;;;;;;5079066;28;19967;-69
2022/01/26 06:48:43;;;;;;;;;;;22.20;27.40;;;;;;5069717;28;19955;-69
2022/01/26 06:51:03;;;;;;;;;;;22.30;27.70;;;;;;5101475;28;20453;-71
2022/01/26 06:53:30;;;;;;;;;;;22.40;27.90;;;;;;5085420;28;19920;-71
2022/01/26 06:55:57;;;;;;;;;;;22.40;28.10;;;;;;5065926;28;20385;-65
2022/01/26 06:58:24;;;;;;;;;;;22.50;28.00;;;;;;5084200;28;19924;-65
2022/01/26 07:00:51;;;;;;;;;;;22.50;28.20;;;;;;5087951;28;19924;-65
2022/01/26 07:06:31;;;;;;;;;;;22.70;27.80;;;;;;5085279;28;19920;-65
2022/01/26 07:08:59;;;;;;;;;;;22.70;27.70;;;;;;5087525;28;20039;-65
2022/01/26 07:11:26;;;;;;;;;;;22.70;27.60;;;;;;5087188;28;19963;-71
2022/01/26 07:13:54;;;;;;;;;;;22.80;27.60;;;;;;5089588;28;20011;-65
2022/01/26 07:21:55;;;;;;;;;;;23.00;28.10;;;;;;5089429;28;20288;-70
2022/01/26 07:24:21;;;;;;;;;;;23.10;28.20;;;;;;5089252;28;20110;-68
2022/01/26 07:26:53;;;;;;;;;;;23.10;28.20;;;;;;5090200;28;19960;-69
2022/01/26 07:29:24;;;;;;;;;;;23.20;28.30;;;;;;5088290;28;19928;-72
2022/01/26 07:31:51;;;;;;;;;;;23.20;28.20;;;;;;5079704;28;19975;-73
2022/01/26 07:34:21;;;;;;;;;;;23.30;28.00;;;;;;5081674;28;20395;-75
2022/01/26 07:36:51;;;;;;;;;;;23.40;28.20;;;;;;5079718;28;20392;-72
2022/01/26 07:39:29;;;;;;;;;;;23.40;28.10;;;;;;5085376;28;19966;-68
2022/01/26 07:41:56;;;;;;;;;;;23.50;28.20;;;;;;5084686;28;20423;-68
2022/01/26 07:44:24;;;;;;;;;;;23.60;28.30;;;;;;5086358;28;19963;-68
2022/01/26 07:46:51;;;;;;;;;;;23.60;28.10;;;;;;5077040;28;19923;-68
2022/01/26 07:49:18;;;;;;;;;;;23.70;27.90;;;;;;5084990;28;19949;-66
2022/01/26 07:51:48;;;;;;;;;;;23.70;27.90;;;;;;5082666;28;19928;-68
2022/01/26 07:54:16;;;;;;;;;;;23.80;28.10;;;;;;5087405;28;19932;-70
2022/01/26 07:56:45;;;;;;;;;;;23.80;28.20;;;;;;5087172;28;20014;-66
2022/01/26 07:59:12;;;;;;;;;;;23.80;28.10;;;;;;5086071;28;19995;-68
2022/01/26 08:01:39;;;;;;;;;;;23.80;28.10;;;;;;5083882;28;20365;-67
2022/01/26 08:04:06;;;;;;;;;;;23.80;28.30;;;;;;5086910;28;20202;-67
2022/01/26 08:06:38;;;;;;;;;;;23.70;28.40;;;;;;5091906;28;19924;-69
2022/01/26 08:09:04;;;;;;;;;;;23.80;28.40;;;;;;5069249;28;19920;-68
2022/01/26 08:11:31;;;;;;;;;;;23.70;28.20;;;;;;5088225;28;19943;-66
2022/01/26 08:13:58;;;;;;;;;;;23.70;28.20;;;;;;5088248;28;19924;-68
2022/01/26 08:16:25;;;;;;;;;;;23.80;28.40;;;;;;5091989;28;20440;-70
2022/01/26 08:18:52;;;;;;;;;;;23.80;28.30;;;;;;5091688;28;20015;-71
2022/01/26 08:21:19;;;;;;;;;;;23.80;28.10;;;;;;5086959;28;20355;-68
2022/01/26 08:23:48;;;;;;;;;;;23.80;28.00;;;;;;5086723;28;20022;-63
2022/01/26 08:26:19;;;;;;;;;;;23.90;28.10;;;;;;5073104;28;19920;-66
2022/01/26 08:28:52;;;;;;;;;;;23.90;28.20;;;;;;5092215;28;20015;-63
2022/01/26 08:31:19;;;;;;;;;;;23.90;28.20;;;;;;5090433;28;20023;-63
2022/01/26 08:33:46;;;;;;;;;;;23.90;28.30;;;;;;5098243;28;19923;-63
2022/01/26 08:36:13;;;;;;;;;;;23.90;28.30;;;;;;5111778;28;19919;-63
2022/01/26 08:38:40;;;;;;;;;;;23.90;28.30;;;;;;5112222;28;19970;-66
2022/01/26 08:41:07;;;;;;;;;;;23.90;28.20;;;;;;5112978;28;20338;-65
2022/01/26 08:43:34;;;;;;;;;;;24.00;28.30;;;;;;5091866;28;19920;-65
2022/01/26 08:46:01;;;;;;;;;;;24.00;28.40;;;;;;5091833;28;20011;-65
2022/01/26 08:48:29;;;;;;;;;;;24.00;28.30;;;;;;5091577;28;19966;-72
2022/01/26 08:50:56;;;;;;;;;;;24.00;28.20;;;;;;5091600;28;19919;-68
2022/01/26 08:53:23;;;;;;;;;;;24.10;28.40;;;;;;5089740;28;20046;-70
2022/01/26 08:55:51;;;;;;;;;;;24.10;28.30;;;;;;5089247;28;19966;-72
2022/01/26 08:58:18;;;;;;;;;;;24.10;28.80;;;;;;5083121;28;19924;-67
2022/01/26 09:00:45;;;;;;;;;;;24.10;28.20;;;;;;5088642;28;19964;-67
2022/01/26 09:03:14;;;;;;;;;;;24.10;28.30;;;;;;5085032;28;20356;-68
2022/01/26 09:05:42;;;;;;;;;;;24.10;28.20;;;;;;5085095;28;19966;-67
2022/01/26 09:08:09;;;;;;;;;;;24.10;28.30;;;;;;5085765;28;20001;-70
2022/01/26 09:10:38;;;;;;;;;;;24.10;28.40;;;;;;5078281;28;20012;-68
2022/01/26 09:16:11;;;;;;;;;;;24.20;28.40;;;;;;5086040;28;19965;-65
2022/01/26 09:18:50;;;;;;;;;;;24.20;28.30;;;;;;5088176;28;19927;-65
2022/01/26 09:21:18;;;;;;;;;;;24.20;28.40;;;;;;5072227;28;20019;-67
2022/01/26 09:23:45;;;;;;;;;;;24.20;28.50;;;;;;5087469;28;20368;-69
2022/01/26 09:26:12;;;;;;;;;;;24.20;28.50;;;;;;5086119;28;19927;-67
2022/01/26 09:28:39;;;;;;;;;;;24.20;28.50;;;;;;5087278;28;20355;-68
2022/01/26 09:31:06;;;;;;;;;;;24.20;28.60;;;;;;5089083;28;19928;-67
2022/01/26 09:33:33;;;;;;;;;;;24.30;28.60;;;;;;5095093;28;19961;-66
2022/01/26 09:36:02;;;;;;;;;;;24.30;28.60;;;;;;5086243;28;20403;-68
2022/01/26 09:38:29;;;;;;;;;;;24.30;28.60;;;;;;5094497;28;20007;-66
2022/01/26 09:40:56;;;;;;;;;;;24.30;28.40;;;;;;5110825;28;20010;-74
2022/01/26 09:43:23;;;;;;;;;;;24.30;28.30;;;;;;5099349;28;19919;-66
2022/01/26 09:45:50;;;;;;;;;;;24.30;28.30;;;;;;5095313;28;20353;-68
2022/01/26 09:52:05;;;;;;;;;;;24.30;28.20;;;;;;5090699;28;19915;-69
2022/01/26 09:54:32;;;;;;;;;;;24.40;28.10;;;;;;5086120;28;19996;-63
2022/01/26 09:57:19;;;;;;;;;;;24.40;28.00;;;;;;5085500;28;19920;-68
2022/01/26 09:59:46;;;;;;;;;;;24.40;28.50;;;;;;5089350;28;19949;-64
2022/01/26 10:02:21;;;;;;;;;;;24.40;28.60;;;;;;5090728;28;19974;-66
2022/01/26 10:04:54;;;;;;;;;;;24.40;28.80;;;;;;5090078;28;19920;-65
2022/01/26 10:07:28;;;;;;;;;;;24.50;29.00;;;;;;5085577;28;19970;-69
2022/01/26 10:10:33;;;;;;;;;;;24.50;29.00;;;;;;5089980;28;19920;-66
2022/01/26 10:15:55;;;;;;;;;;;24.50;29.00;;;;;;5090047;28;19920;-69
2022/01/26 10:18:23;;;;;;;;;;;24.60;29.20;;;;;;5085463;28;19920;-71
2022/01/26 10:20:53;;;;;;;;;;;24.60;29.20;;;;;;5090062;28;19920;-65
2022/01/26 10:23:22;;;;;;;;;;;24.70;29.30;;;;;;5088666;28;19966;-66
2022/01/26 10:26:03;;;;;;;;;;;24.70;29.30;;;;;;5090105;28;19920;-69
2022/01/26 10:28:49;;;;;;;;;;;24.70;29.20;;;;;;5087832;28;19979;-70
2022/01/26 10:31:18;;;;;;;;;;;24.70;29.20;;;;;;5082471;28;20007;-68
2022/01/26 10:34:12;;;;;;;;;;;24.80;29.20;;;;;;5083192;28;19931;-70
2022/01/26 10:36:47;;;;;;;;;;;24.80;29.10;;;;;;5084719;28;20049;-70
2022/01/26 10:39:19;;;;;;;;;;;24.90;29.10;;;;;;5084740;28;19973;-67
2022/01/26 10:41:49;;;;;;;;;;;24.90;29.10;;;;;;5083905;28;19985;-66
2022/01/26 10:51:54;;;;;;;;;;;25.00;28.80;;;;;;5085488;28;19934;-65
2022/01/26 10:54:25;;;;;;;;;;;25.00;28.70;;;;;;5086534;28;19935;-66
2022/01/26 10:56:52;;;;;;;;;;;25.00;28.70;;;;;;5090192;28;19989;-64
2022/01/26 10:59:19;;;;;;;;;;;25.00;28.60;;;;;;5108200;28;19923;-66
2022/01/26 11:01:47;;;;;;;;;;;25.00;28.50;;;;;;5084723;28;19946;-65
2022/01/26 11:04:14;;;;;;;;;;;25.10;28.50;;;;;;5087228;28;20289;-66
2022/01/26 11:06:42;;;;;;;;;;;25.10;28.60;;;;;;5089515;28;19948;-64
2022/01/26 11:09:13;;;;;;;;;;;25.10;28.60;;;;;;5103676;28;19919;-66
2022/01/26 11:11:40;;;;;;;;;;;25.10;28.50;;;;;;5087907;28;19927;-65
2022/01/26 11:14:14;;;;;;;;;;;25.10;28.40;;;;;;5087925;28;19926;-69
2022/01/26 11:17:01;;;;;;;;;;;25.10;28.30;;;;;;5089510;28;19945;-66
2022/01/26 11:19:38;;;;;;;;;;;25.00;28.10;;;;;;5103886;28;19931;-70
2022/01/26 11:22:07;;;;;;;;;;;25.00;28.00;;;;;;5092278;28;20108;-69
2022/01/26 11:24:51;;;;;;;;;;;25.00;27.90;;;;;;5089521;28;19942;-69
2022/01/26 11:27:18;;;;;;;;;;;25.00;27.80;;;;;;5088206;28;19984;-69
2022/01/26 11:29:48;;;;;;;;;;;25.00;27.70;;;;;;5088155;28;19963;-68
2022/01/26 11:32:34;;;;;;;;;;;24.90;27.60;;;;;;5088114;28;20382;-67
2022/01/26 11:35:04;;;;;;;;;;;24.90;27.60;;;;;;5089056;28;19920;-68
2022/01/26 11:37:40;;;;;;;;;;;24.90;27.50;;;;;;5088064;28;20292;-68
2022/01/26 11:45:05;;;;;;;;;;;24.90;27.30;;;;;;5087703;28;20384;-68
2022/01/26 11:45:41;;;;;;;;;;;24.90;27.20;;;;;;5089048;28;19920;-65
2022/01/26 11:48:10;;;;;;;;;;;24.90;27.20;;;;;;5089375;28;20372;-66
2022/01/26 11:50:42;;;;;;;;;;;24.90;27.40;;;;;;5089833;28;19934;-65
2022/01/26 11:53:10;;;;;;;;;;;24.90;27.60;;;;;;5089739;28;19959;-67
2022/01/26 11:55:48;;;;;;;;;;;24.60;25.40;;;;;;5084559;28;19928;-64
2022/01/26 11:58:18;;;;;;;;;;;24.30;26.60;;;;;;5086475;28;19930;-65
2022/01/26 12:01:08;;;;;;;;;;;24.20;27.10;;;;;;5084201;28;19928;-65
2022/01/26 12:03:43;;;;;;;;;;;24.30;27.50;;;;;;5085797;28;19927;-64
2022/01/26 12:06:22;;;;;;;;;;;24.30;27.60;;;;;;5080831;28;19977;-69
2022/01/26 12:12:18;;;;;;;;;;;24.40;27.70;;;;;;5090321;28;20685;-71
2022/01/26 12:15:05;;;;;;;;;;;24.50;27.70;;;;;;5099984;28;20014;-65
2022/01/26 12:17:38;;;;;;;;;;;24.50;28.00;;;;;;5083420;28;19989;-69
2022/01/26 12:32:01;;;;;;;;;;;24.60;28.30;;;;;;5082289;28;19924;-67
2022/01/26 12:32:16;;;;;;;;;;;24.80;28.50;;;;;;5088506;28;20015;-66
2022/01/26 12:34:50;;;;;;;;;;;24.90;28.80;;;;;;5089183;28;20033;-67
2022/01/26 12:37:37;;;;;;;;;;;24.90;28.60;;;;;;5087311;28;19994;-66
2022/01/26 12:43:02;;;;;;;;;;;25.00;28.30;;;;;;5071865;28;19921;-66
2022/01/26 12:45:53;;;;;;;;;;;25.00;28.30;;;;;;5069057;28;19963;-69
2022/01/26 12:48:21;;;;;;;;;;;25.00;28.20;;;;;;5081339;28;19931;-67
2022/01/26 12:50:48;;;;;;;;;;;25.00;28.10;;;;;;5090722;28;19970;-66
2022/01/26 12:53:21;;;;;;;;;;;25.00;28.00;;;;;;5091989;28;20026;-73
2022/01/26 12:55:53;;;;;;;;;;;25.00;28.10;;;;;;5092179;28;20238;-64
2022/01/26 12:58:28;;;;;;;;;;;25.10;28.10;;;;;;5090705;28;19946;-66
2022/01/26 13:01:00;;;;;;;;;;;25.10;28.80;;;;;;5091818;28;20005;-64
2022/01/26 13:03:29;;;;;;;;;;;25.10;28.30;;;;;;5091572;28;19924;-66
2022/01/26 13:06:11;;;;;;;;;;;25.10;28.20;;;;;;5092145;28;19920;-68
2022/01/26 13:08:42;;;;;;;;;;;25.10;28.10;;;;;;5090373;28;19919;-67
2022/01/26 13:11:09;;;;;;;;;;;25.10;28.10;;;;;;5091435;28;19920;-66
2022/01/26 13:13:36;;;;;;;;;;;25.10;28.10;;;;;;5092025;28;19923;-65
2022/01/26 13:16:14;;;;;;;;;;;25.10;28.00;;;;;;5092203;28;19920;-67
2022/01/26 13:19:14;;;;;;;;;;;25.10;28.00;;;;;;5089569;28;19927;-68
2022/01/26 13:21:51;;;;;;;;;;;25.10;28.00;;;;;;5090549;28;19924;-64
2022/01/26 13:27:20;;;;;;;;;;;25.10;27.90;;;;;;5092106;28;19950;-68
2022/01/26 13:33:02;;;;;;;;;;;25.10;28.20;;;;;;5080489;28;19920;-67
2022/01/26 13:35:37;;;;;;;;;;;25.10;28.10;;;;;;5070911;28;19967;-70
2022/01/26 13:38:16;;;;;;;;;;;25.10;28.10;;;;;;5078370;28;19965;-67
2022/01/26 13:41:03;;;;;;;;;;;25.10;28.00;;;;;;5088745;28;20027;-67
2022/01/26 13:49:29;;;;;;;;;;;25.10;28.00;;;;;;5111013;28;19927;-66
2022/01/26 13:52:05;;;;;;;;;;;25.20;28.50;;;;;;5101395;28;20003;-65
2022/01/26 13:55:04;;;;;;;;;;;25.20;28.80;;;;;;5088509;28;19971;-67
2022/01/26 14:00:07;;;;;;;;;;;25.20;28.80;;;;;;5090881;28;20026;-66
2022/01/26 14:02:36;;;;;;;;;;;25.20;28.70;;;;;;5087673;28;19927;-66
2022/01/26 14:05:05;;;;;;;;;;;25.30;28.70;;;;;;5090998;28;19924;-68
2022/01/26 14:07:31;;;;;;;;;;;25.20;28.40;;;;;;5089547;28;19989;-65
2022/01/26 14:09:58;;;;;;;;;;;25.20;28.40;;;;;;5090793;28;20041;-65
2022/01/26 14:12:30;;;;;;;;;;;25.20;28.30;;;;;;5090639;28;20380;-64
2022/01/26 14:14:59;;;;;;;;;;;25.20;28.20;;;;;;5085262;28;19920;-66
2022/01/26 14:17:58;;;;;;;;;;;25.20;28.30;;;;;;5084741;28;20014;-67
2022/01/26 14:20:38;;;;;;;;;;;25.10;28.20;;;;;;5078586;28;19967;-70
2022/01/26 14:23:17;;;;;;;;;;;25.10;28.20;;;;;;5082816;28;20011;-65
2022/01/26 14:25:47;;;;;;;;;;;25.10;28.20;;;;;;5083528;28;19923;-66
2022/01/26 14:28:20;;;;;;;;;;;25.10;28.40;;;;;;5064355;28;19981;-66
2022/01/26 14:31:10;;;;;;;;;;;25.10;28.40;;;;;;5089464;28;19946;-69
2022/01/26 14:33:56;;;;;;;;;;;25.10;28.50;;;;;;5085598;28;20014;-68
2022/01/26 14:36:49;;;;;;;;;;;25.10;28.60;;;;;;5084880;28;19927;-66
2022/01/26 14:56:13;;;;;;;;;;;25.10;29.00;;;;;;5063580;28;20015;-64
2022/01/26 15:10:46;;;;;;;;;;;25.10;28.70;;;;;;5088638;28;19928;-63
2022/01/26 15:40:51;;;;;;;;;;;25.00;28.70;;;;;;5110091;28;19962;-66
2022/01/26 15:52:32;;;;;;;;;;;24.90;28.40;;;;;;5086075;28;20061;-65
2022/01/26 16:07:02;;;;;;;;;;;24.80;28.40;;;;;;5087014;28;19988;-64
2022/01/26 16:21:01;;;;;;;;;;;24.80;28.60;;;;;;5092846;28;19978;-65
2022/01/26 16:35:54;;;;;;;;;;;24.50;28.40;;;;;;5092360;28;19926;-66
2022/01/26 17:24:17;;;;;;;;;;;24.10;33.80;;;;;;5089534;28;20018;-65
2022/01/26 17:26:20;;;;;;;;;;;24.10;33.20;;;;;;5090412;28;20424;-66
2022/01/26 18:17:46;;;;;;;;;;;23.70;31.90;;;;;;5087675;28;19920;-66
2022/01/26 18:26:08;;;;;;;;;;;23.70;31.80;;;;;;5088830;28;19951;-66
2022/01/26 18:32:15;;;;;;;;;;;23.60;31.70;;;;;;5088924;28;19919;-66
2022/01/26 18:40:36;;;;;;;;;;;23.60;31.70;;;;;;5090511;28;20387;-66
2022/01/26 18:49:20;;;;;;;;;;;23.50;31.70;;;;;;5089507;28;19935;-66
2022/01/26 18:51:49;;;;;;;;;;;23.50;31.70;;;;;;5088223;28;19967;-66
2022/01/26 18:54:17;;;;;;;;;;;23.50;31.70;;;;;;5089891;28;20027;-66
2022/01/26 18:56:46;;;;;;;;;;;23.50;31.60;;;;;;5086882;28;19924;-66
2022/01/26 18:59:14;;;;;;;;;;;23.50;31.60;;;;;;5089250;28;19988;-66
2022/01/26 19:01:41;;;;;;;;;;;23.50;31.60;;;;;;5088941;28;19920;-66
2022/01/26 19:04:30;;;;;;;;;;;23.40;31.50;;;;;;5089288;28;19927;-66
2022/01/26 19:06:58;;;;;;;;;;;23.40;31.40;;;;;;5087431;28;20012;-66
2022/01/26 19:09:28;;;;;;;;;;;23.40;31.50;;;;;;5088116;28;19959;-66
2022/01/26 19:11:56;;;;;;;;;;;23.40;31.40;;;;;;5087547;28;20593;-66
2022/01/26 19:14:26;;;;;;;;;;;23.40;31.40;;;;;;5088959;28;19963;-66
2022/01/26 19:17:01;;;;;;;;;;;23.30;31.30;;;;;;5087336;28;19954;-66
2022/01/26 19:19:41;;;;;;;;;;;23.30;31.30;;;;;;5089524;28;20295;-66
2022/01/26 19:22:40;;;;;;;;;;;23.30;31.30;;;;;;5070427;28;20008;-66
2022/01/26 19:25:10;;;;;;;;;;;23.30;31.30;;;;;;5069733;28;19920;-65
2022/01/26 19:43:31;;;;;;;;;;;23.20;31.10;;;;;;5066755;28;19991;-66
2022/01/26 19:45:09;;;;;;;;;;;23.20;31.10;;;;;;5068387;28;20101;-66
2022/01/26 19:56:32;;;;;;;;;;;23.10;30.80;;;;;;5091650;28;19918;-66
2022/01/26 19:58:58;;;;;;;;;;;23.10;30.70;;;;;;5092337;28;20031;-66
2022/01/26 20:01:26;;;;;;;;;;;23.10;30.70;;;;;;5092672;28;19920;-67
2022/01/26 20:03:53;;;;;;;;;;;23.10;30.70;;;;;;5091638;28;19920;-65
2022/01/26 20:06:20;;;;;;;;;;;23.10;30.70;;;;;;5091589;28;20028;-65
2022/01/26 20:09:03;;;;;;;;;;;23.10;30.60;;;;;;5073472;28;20171;-66
2022/01/26 20:11:45;;;;;;;;;;;23.10;30.60;;;;;;5092260;28;19959;-65
2022/01/26 20:14:20;;;;;;;;;;;23.00;30.50;;;;;;5091753;28;20412;-65
2022/01/26 20:16:47;;;;;;;;;;;23.00;30.50;;;;;;5090086;28;19956;-66
2022/01/26 20:26:24;;;;;;;;;;;23.00;30.40;;;;;;5090510;28;19915;-66
2022/01/26 20:28:52;;;;;;;;;;;23.00;30.40;;;;;;5091193;28;19920;-66
2022/01/26 20:31:22;;;;;;;;;;;23.00;30.50;;;;;;5092062;28;20304;-65
2022/01/26 20:33:50;;;;;;;;;;;23.00;30.40;;;;;;5090757;28;20078;-66
2022/01/26 20:36:17;;;;;;;;;;;22.90;30.40;;;;;;5091078;28;19930;-66
2022/01/26 20:42:06;;;;;;;;;;;22.90;30.40;;;;;;5090940;28;20375;-66
2022/01/26 20:44:33;;;;;;;;;;;22.90;30.30;;;;;;5092022;28;19962;-66